createdAt,value
2018-09-08T00:03:05.754Z,7.87
2018-09-08T00:09:00.755Z,8.34
2018-09-08T00:14:55.812Z,8.23
2018-09-08T00:20:50.756Z,8.52
2018-09-08T00:26:45.773Z,7.52
2018-09-08T00:32:40.760Z,8.33
2018-09-08T00:38:35.795Z,7.84
2018-09-08T00:44:30.772Z,8.96
2018-09-08T00:50:25.767Z,8.74
2018-09-08T00:56:20.788Z,8.79
2018-09-08T01:02:15.818Z,8.36
2018-09-08T01:08:10.772Z,8.11
2018-09-08T01:14:05.810Z,8.37
2018-09-08T01:20:00.819Z,7.9
2018-09-08T01:25:55.822Z,8.42
2018-09-08T01:31:50.803Z,7.73
2018-09-08T01:37:45.806Z,8.54
2018-09-08T01:43:40.813Z,8.57
2018-09-08T01:49:35.838Z,9.4
2018-09-08T01:55:30.835Z,9.4
2018-09-08T02:01:25.833Z,10.11
2018-09-08T02:07:20.851Z,9.9
2018-09-08T02:13:15.845Z,10.37
2018-09-08T02:19:10.846Z,9.57
2018-09-08T02:25:05.854Z,9.22
2018-09-08T02:31:00.878Z,9.27
2018-09-08T02:36:55.875Z,9.27
2018-09-08T02:42:50.884Z,9.17
2018-09-08T02:48:45.862Z,8.74
2018-09-08T02:54:40.877Z,9.61
2018-09-08T03:00:35.868Z,8.69
2018-09-08T03:06:30.920Z,9.83
2018-09-08T03:12:25.866Z,9.05
2018-09-08T03:18:20.916Z,9.09
2018-09-08T03:24:15.893Z,8.64
2018-09-08T03:30:10.907Z,9.71
2018-09-08T03:36:05.899Z,9.58
2018-09-08T03:42:00.895Z,9.38
2018-09-08T03:47:56.028Z,10.29
2018-09-08T03:53:50.913Z,9.79
2018-09-08T03:59:45.906Z,10.06
2018-09-08T04:05:40.953Z,10.03
2018-09-08T04:11:35.966Z,10.37
2018-09-08T04:17:30.921Z,10.12
2018-09-08T04:23:25.930Z,10.11
2018-09-08T04:29:20.966Z,9.86
2018-09-08T04:35:15.942Z,9.85
2018-09-08T04:41:10.963Z,10.08
2018-09-08T04:47:05.940Z,10.45
2018-09-08T04:53:00.976Z,9.79
2018-09-08T04:58:55.985Z,9.88
2018-09-08T05:04:50.994Z,10.1
2018-09-08T05:10:45.975Z,9.73
2018-09-08T05:16:40.973Z,12.17
2018-09-08T05:22:35.972Z,10.85
2018-09-08T05:28:31.040Z,12.06
2018-09-08T05:34:26.028Z,12.24
2018-09-08T05:40:21.022Z,12.29
2018-09-08T05:46:15.992Z,10.46
2018-09-08T05:52:10.998Z,11.09
2018-09-08T05:58:06.005Z,10.77
2018-09-08T06:04:01.025Z,10.83
2018-09-08T06:09:56.006Z,11.48
2018-09-08T06:15:51.004Z,11.88
2018-09-08T06:21:46.030Z,11.5
2018-09-08T06:27:41.018Z,11.63
2018-09-08T06:33:36.068Z,11.87
2018-09-08T06:39:31.055Z,14
2018-09-08T06:45:26.032Z,14.05
2018-09-08T06:51:21.035Z,13.75
2018-09-08T06:57:16.035Z,15.42
2018-09-08T07:03:11.057Z,16.64
2018-09-08T07:09:06.081Z,16.6
2018-09-08T07:15:01.149Z,21.93
2018-09-08T07:20:56.055Z,22.18
2018-09-08T07:26:51.090Z,20.95
2018-09-08T07:32:46.083Z,14.09
2018-09-08T07:38:41.081Z,13.6
2018-09-08T07:44:36.085Z,14.3
2018-09-08T07:50:31.086Z,15.01
2018-09-08T07:56:26.159Z,18.01
2018-09-08T08:02:21.099Z,17.71
2018-09-08T08:08:16.136Z,16.43
2018-09-08T08:14:11.124Z,13.38
2018-09-08T08:20:06.099Z,10.98
2018-09-08T08:26:01.144Z,9.09
2018-09-08T08:31:56.122Z,9.03
2018-09-08T08:37:51.142Z,9
2018-09-08T08:43:46.127Z,7.45
2018-09-08T08:49:41.140Z,7.99
2018-09-08T08:55:36.140Z,7.3
2018-09-08T09:01:31.150Z,7.02
2018-09-08T09:07:26.158Z,6.78
2018-09-08T09:13:21.175Z,6.37
2018-09-08T09:19:16.149Z,5.56
2018-09-08T09:25:11.190Z,5.47
2018-09-08T09:31:06.193Z,4.97
2018-09-08T09:37:01.193Z,4.63
2018-09-08T09:42:56.224Z,4.43
2018-09-08T09:48:51.199Z,4.71
2018-09-08T09:54:46.212Z,4.34
2018-09-08T10:00:41.554Z,4.45
2018-09-08T10:06:36.277Z,4.09
2018-09-08T10:12:31.192Z,3.81
2018-09-08T10:18:26.231Z,6.77
2018-09-08T10:24:21.208Z,5.48
2018-09-08T10:30:16.231Z,4.15
2018-09-08T10:36:11.245Z,4
2018-09-08T10:42:06.259Z,3.97
2018-09-08T10:48:01.271Z,4.39
2018-09-08T10:53:56.252Z,3.35
2018-09-08T10:59:51.277Z,3.18
2018-09-08T11:05:46.325Z,3.15
2018-09-08T11:11:41.297Z,2.84
2018-09-08T11:17:36.248Z,2.74
2018-09-08T11:23:31.290Z,2.97
2018-09-08T11:29:26.285Z,2.61
2018-09-08T11:35:21.276Z,3.03
2018-09-08T11:41:16.282Z,2.37
2018-09-08T11:47:11.274Z,2.72
2018-09-08T11:53:06.300Z,2.77
2018-09-08T11:59:01.302Z,2.8
2018-09-08T12:04:56.309Z,2.83
2018-09-08T12:10:51.313Z,2.68
2018-09-08T12:16:46.299Z,2.98
2018-09-08T12:22:41.382Z,2.85
2018-09-08T12:28:36.318Z,2.87
2018-09-08T12:34:31.327Z,5.56
2018-09-08T12:40:26.368Z,2.28
2018-09-08T12:46:21.321Z,2.6
2018-09-08T12:52:16.347Z,2.56
2018-09-08T12:58:11.345Z,2.78
2018-09-08T13:04:06.357Z,2.17
2018-09-08T13:10:01.382Z,2.28
2018-09-08T13:15:56.405Z,2.77
2018-09-08T13:21:51.426Z,2.19
2018-09-08T13:27:46.375Z,2.3
2018-09-08T13:33:41.437Z,2.63
2018-09-08T13:39:36.488Z,2.61
2018-09-08T13:45:31.398Z,2.49
2018-09-08T13:51:26.397Z,2.96
2018-09-08T13:57:21.401Z,2.45
2018-09-08T14:03:16.421Z,3.17
2018-09-08T14:09:11.439Z,3.07
2018-09-08T14:15:06.429Z,2.62
2018-09-08T14:21:01.419Z,2.82
2018-09-08T14:26:56.482Z,2.76
2018-09-08T14:32:51.430Z,2.44
2018-09-08T14:38:46.438Z,2.52
2018-09-08T14:44:41.467Z,2.2
2018-09-08T14:50:36.480Z,2.48
2018-09-08T14:56:31.556Z,2.71
2018-09-08T15:02:26.448Z,2.72
2018-09-08T15:08:21.481Z,3.23
2018-09-08T15:14:16.488Z,3.18
2018-09-08T15:20:11.486Z,2.94
2018-09-08T15:26:06.617Z,2.66
2018-09-08T15:32:01.477Z,2.96
2018-09-08T15:37:56.500Z,2.72
2018-09-08T15:43:51.524Z,2.38
2018-09-08T15:49:46.503Z,2.54
2018-09-08T15:55:41.495Z,2.74
2018-09-08T16:01:36.520Z,2.89
2018-09-08T16:07:31.543Z,3.02
2018-09-08T16:13:26.528Z,2.77
2018-09-08T16:19:21.538Z,2.98
2018-09-08T16:25:16.525Z,2.94
2018-09-08T16:31:11.541Z,2.64
2018-09-08T16:37:06.541Z,2.76
2018-09-08T16:43:01.561Z,3.09
2018-09-08T16:48:56.574Z,3.39
2018-09-08T16:54:51.554Z,2.79
2018-09-08T17:00:46.597Z,3.05
2018-09-08T17:06:41.607Z,2.64
2018-09-08T17:12:36.576Z,2.98
2018-09-08T17:18:31.598Z,2.82
2018-09-08T17:24:26.616Z,7.78
2018-09-08T17:30:21.595Z,5.39
2018-09-08T17:36:16.616Z,6.02
2018-09-08T17:42:11.621Z,7.58
2018-09-08T17:48:06.613Z,6.31
2018-09-08T17:54:01.625Z,6.2
2018-09-08T17:59:56.615Z,5.37
2018-09-08T18:05:51.700Z,6.12
2018-09-08T18:11:46.754Z,5.12
2018-09-08T18:17:41.637Z,5.03
2018-09-08T18:23:36.764Z,5.53
2018-09-08T18:29:31.691Z,5.81
2018-09-08T18:35:26.663Z,5.3
2018-09-08T18:41:21.652Z,5.24
2018-09-08T18:47:16.703Z,5.56
2018-09-08T18:53:11.677Z,4.77
2018-09-08T18:59:06.693Z,4.69
2018-09-08T19:05:01.665Z,5.31
2018-09-08T19:10:56.743Z,5.27
2018-09-08T19:16:51.737Z,5.28
2018-09-08T19:22:46.679Z,5.63
2018-09-08T19:28:41.703Z,6
2018-09-08T19:34:36.727Z,5.9
2018-09-08T19:40:31.712Z,6.03
2018-09-08T19:46:26.728Z,5.92
2018-09-08T19:52:21.734Z,5.51
2018-09-08T19:58:16.812Z,4.76
2018-09-08T20:04:11.728Z,4.61
2018-09-08T20:10:06.743Z,5.05
2018-09-08T20:16:01.724Z,4.97
2018-09-08T20:21:56.720Z,4.95
2018-09-08T20:27:51.721Z,5.39
2018-09-08T20:33:46.743Z,5.98
2018-09-08T20:39:41.768Z,6.57
2018-09-08T20:45:36.759Z,5.64
2018-09-08T20:51:31.817Z,6.1
2018-09-08T20:57:26.756Z,5.94
2018-09-08T21:03:21.761Z,5.16
2018-09-08T21:09:16.782Z,5.28
2018-09-08T21:15:11.858Z,5.5
2018-09-08T21:21:06.785Z,5.48
2018-09-08T21:27:01.805Z,5.34
2018-09-08T21:32:56.782Z,5.5
2018-09-08T21:38:51.798Z,5.76
2018-09-08T21:44:46.816Z,6.1
2018-09-08T21:50:41.807Z,5.5
2018-09-08T21:56:36.854Z,5.46
2018-09-08T22:02:31.828Z,6.14
2018-09-08T22:08:26.836Z,6.45
2018-09-08T22:14:21.819Z,6.49
2018-09-08T22:20:16.848Z,5.99
2018-09-08T22:26:11.836Z,5.88
2018-09-08T22:32:06.841Z,6.48
2018-09-08T22:38:01.839Z,6.61
2018-09-08T22:43:56.852Z,6.89
2018-09-08T22:49:51.861Z,6.26
2018-09-08T22:55:46.839Z,7.01
2018-09-08T23:01:41.863Z,7.28
2018-09-08T23:07:36.859Z,6.76
2018-09-08T23:13:31.892Z,7.26
2018-09-08T23:19:26.857Z,6.76
2018-09-08T23:25:21.898Z,6.86
2018-09-08T23:31:16.890Z,6.83
2018-09-08T23:37:11.884Z,6.77
2018-09-08T23:43:06.924Z,7.18
2018-09-08T23:49:01.901Z,6.8
2018-09-08T23:54:56.911Z,8.58
